Pagina principale
METAR-TAF:

METAR-TAF

Aeroporti :

Aeroporto Internazionale di Tashkent

Taškent, Uzbekistan

latitudine: 41-16N, longitudine: 069-16E, altezza: 489 m

Osservazione

Il bollettino è stato emesso 41 minuti fa, alle 23:30 UTC
Vento 4 kt da est/nord-est
Temperature 15°C
Umidità 55%
Pressione 1019 hPa
Visibilità 10 km o più
nessuna nube inferiore a 1500 m e nessun cumulonembo

METAR: UTTT 212330Z 06004KT CAVOK 15/06 Q1019 R08R/CLRD70 NOSIG

Ora: 05:11 (00:11 UTC)

Previsione

Il bollettino è stato emesso 1 ora e 11 minuti fa, alle 23:00 UTC
Previsione valida dal 22 alle 00 UTC al 22 alle 24 UTC
Vento 10 kt da est/nord-est
Visibilità: 7000 m
Temporaneamente
dal 22 alle 05 UTC al 22 alle 15 UTC
Vento 15 kt da ovest

TAF: UTTT 212300Z 2200/2224 07010KT 7000 NSC TEMPO 2205/2215 27015KT

Osservazioni e previsioni meteorologiche di più di 4000 aeroporti (messaggi METAR e TAF).

Le stazioni disponibili sono rappresentate dai dischi gialli e rossi sulla carta.

Puntare il mouse per vedere il nome della stazione.

Clicca sopra per visualizzare le osservazioni e previsioni meteorologiche.

Per cambiare la mappa : fare clic sui pulsanti verdi con una croce nera per ingrandire, il pulsante verde con un trattino per diminuire, o sulla freccia verde per le mappe adiacenti.


METAR-TAF: